Time;durP1;ratioP1;P1;durP2;ratioP2;P2;SDS_P1;SDS_P2;PMS_P1;PMS_P2;Temp;Humidity;BMP_temperature;BMP_pressure;BME280_temperature;BME280_humidity;BME280_pressure;Samples;Min_cycle;Max_cycle;Signal;HPM_P1;HPM_P2
2021/07/10 00:02:22;;;;;;;2.03;1.25;;;15.70;99.90;;;14.53;100.00;101980.22;4936983;28;20182;-84
2021/07/10 00:04:48;;;;;;;3.08;2.00;;;15.80;99.90;;;14.56;100.00;101979.28;4903208;28;20164;-83
2021/07/10 00:07:22;;;;;;;2.47;1.33;;;15.80;99.90;;;14.54;100.00;101989.91;4919435;28;20078;-84
2021/07/10 00:09:48;;;;;;;4.80;1.33;;;;;;;14.56;100.00;101988.09;4900264;28;20121;-84
2021/07/10 00:12:14;;;;;;;8.27;1.20;;;15.80;99.90;;;14.56;100.00;101990.75;4904971;28;20101;-83
2021/07/10 00:14:41;;;;;;;2.05;1.17;;;;;;;14.57;100.00;102244.25;4904049;28;20150;-84
2021/07/10 00:17:17;;;;;;;7.80;1.48;;;15.90;99.90;;;14.54;100.00;102601.34;4933704;28;20067;-84
2021/07/10 00:19:43;;;;;;;;;;;15.80;99.90;;;14.57;100.00;102174.50;4955910;28;20074;-84
2021/07/10 00:22:09;;;;;;;2.23;1.20;;;15.80;99.90;;;14.61;100.00;102083.31;4937412;28;19943;-83
2021/07/10 00:24:46;;;;;;;3.75;1.10;;;15.90;99.90;;;14.60;100.00;102070.13;4941178;28;20054;-83
2021/07/10 00:27:13;;;;;;;3.35;1.50;;;;;;;14.60;100.00;102038.31;4942688;28;20852;-82
2021/07/10 00:29:48;;;;;;;2.28;1.33;;;15.80;99.90;;;14.59;100.00;102033.94;4984688;28;20591;-83
2021/07/10 00:32:14;;;;;;;6.60;1.52;;;15.90;99.90;;;14.62;100.00;102044.41;4916160;28;20062;-83
2021/07/10 00:34:41;;;;;;;7.00;1.33;;;15.80;99.90;;;14.65;100.00;103576.78;4910193;28;20072;-83
2021/07/10 00:37:14;;;;;;;2.55;1.30;;;15.80;99.90;;;14.56;100.00;103173.03;4937697;28;20479;-82
2021/07/10 00:39:40;;;;;;;3.10;1.73;;;15.80;99.90;;;14.55;100.00;102911.47;4929049;28;20065;-83
2021/07/10 00:42:06;;;;;;;3.55;1.23;;;15.70;99.90;;;14.54;100.00;102731.25;4930169;28;20151;-83
2021/07/10 00:44:32;;;;;;;5.32;1.17;;;15.70;99.90;;;14.49;100.00;102678.38;4960407;28;20151;-82
2021/07/10 00:47:03;;;;;;;5.25;1.30;;;15.70;99.90;;;14.47;100.00;102492.03;4939706;28;20088;-82
2021/07/10 00:49:32;;;;;;;5.55;1.50;;;15.70;99.90;;;14.48;100.00;102172.19;4898035;28;20053;-82
2021/07/10 00:51:58;;;;;;;6.40;1.60;;;15.70;99.90;;;14.43;100.00;102152.97;4910810;28;20063;-82
2021/07/10 00:54:24;;;;;;;5.15;1.50;;;15.70;99.90;;;14.42;100.00;102141.47;4929274;28;20476;-82
2021/07/10 00:56:58;;;;;;;1.83;1.05;;;15.70;99.90;;;14.41;100.00;102136.25;4919476;28;20105;-82
2021/07/10 00:59:28;;;;;;;2.78;1.50;;;15.60;99.90;;;14.42;100.00;102230.72;4973314;28;20060;-82
2021/07/10 01:01:55;;;;;;;2.13;1.25;;;15.60;99.90;;;14.41;100.00;102197.22;4886102;28;20083;-81
2021/07/10 01:04:24;;;;;;;2.22;1.38;;;15.60;99.90;;;14.40;100.00;102201.63;4902637;28;20099;-82
2021/07/10 01:06:50;;;;;;;7.30;1.73;;;15.60;99.90;;;14.38;100.00;102184.91;4908188;28;20063;-82
2021/07/10 01:09:17;;;;;;;3.00;1.50;;;15.60;99.90;;;14.37;100.00;102191.16;4943902;28;20085;-82
2021/07/10 01:11:44;;;;;;;2.40;1.70;;;15.60;99.90;;;14.36;100.00;102157.63;4935752;28;21526;-82
2021/07/10 01:14:22;;;;;;;2.03;1.63;;;15.60;99.90;;;14.32;100.00;102151.59;4938497;28;20059;-82
2021/07/10 01:16:48;;;;;;;1.35;1.25;;;15.60;99.90;;;14.32;100.00;102154.25;4894640;28;20225;-82
2021/07/10 01:19:26;;;;;;;11.82;2.22;;;15.60;99.90;;;14.32;100.00;102140.16;4949894;28;21889;-82
2021/07/10 01:21:59;;;;;;;2.85;1.40;;;15.60;99.90;;;14.31;100.00;102130.47;4912105;28;20059;-82
2021/07/10 01:24:27;;;;;;;3.17;1.50;;;15.50;99.90;;;14.23;100.00;102104.25;4888564;28;20529;-82
2021/07/10 01:26:53;;;;;;;2.83;1.30;;;15.50;99.90;;;14.21;100.00;102108.78;4954596;28;20142;-82
2021/07/10 01:29:20;;;;;;;3.05;1.40;;;15.50;99.90;;;14.22;100.00;102107.00;4938179;28;20547;-82
2021/07/10 01:31:57;;;;;;;3.47;1.35;;;15.50;99.90;;;14.25;100.00;102090.97;4913525;28;20165;-82
2021/07/10 01:34:23;;;;;;;2.90;1.67;;;15.50;99.90;;;14.21;100.00;102063.75;4912326;28;20455;-82
2021/07/10 01:36:49;;;;;;;4.63;1.60;;;15.50;99.90;;;14.24;100.00;102082.16;4964144;28;20113;-82
2021/07/10 01:39:22;;;;;;;2.67;1.45;;;15.50;99.90;;;14.24;100.00;102055.66;4945723;28;20162;-82
2021/07/10 01:41:49;;;;;;;4.10;1.88;;;15.50;99.90;;;14.19;100.00;102044.41;4932964;28;20055;-82
2021/07/10 01:44:15;;;;;;;1.50;1.40;;;15.50;99.90;;;14.21;100.00;102046.97;4973282;28;20057;-82
2021/07/10 01:46:41;;;;;;;1.60;1.48;;;15.50;99.90;;;14.18;100.00;102049.75;4951811;28;20063;-82
2021/07/10 01:49:12;;;;;;;1.52;1.35;;;;;;;14.19;100.00;102044.41;4974976;28;20068;-82
2021/07/10 01:51:38;;;;;;;2.20;1.70;;;;;;;14.22;100.00;102038.09;4924139;28;20100;-83
2021/07/10 01:54:04;;;;;;;4.93;1.75;;;15.50;99.90;;;14.21;100.00;102058.44;4930327;28;20168;-81
2021/07/10 01:56:30;;;;;;;3.13;1.75;;;15.50;99.90;;;14.22;100.00;102051.34;4889386;28;20482;-82
2021/07/10 01:58:56;;;;;;;1.42;1.33;;;15.50;99.90;;;14.20;100.00;102054.06;4928255;28;20064;-82
2021/07/10 02:01:32;;;;;;;2.53;1.60;;;;;;;14.18;100.00;102177.75;4951699;28;20064;-82
2021/07/10 02:03:59;;;;;;;3.95;1.95;;;15.50;99.90;;;14.21;100.00;102137.03;4871198;28;20166;-82
2021/07/10 02:06:35;;;;;;;4.18;1.70;;;15.50;99.90;;;14.21;100.00;102113.19;4905734;28;20315;-82
2021/07/10 02:09:01;;;;;;;3.22;1.52;;;15.50;99.90;;;14.18;100.00;102106.22;4944668;28;20064;-82
2021/07/10 02:11:27;;;;;;;2.78;1.67;;;15.40;99.90;;;14.21;100.00;102087.59;4936694;28;20111;-82
2021/07/10 02:13:53;;;;;;;5.80;1.40;;;15.50;99.90;;;14.23;100.00;102109.56;4903463;28;20097;-82
2021/07/10 02:16:26;;;;;;;4.18;1.73;;;15.50;99.90;;;14.21;100.00;102103.47;4948860;28;20056;-81
2021/07/10 02:18:52;;;;;;;2.20;1.60;;;15.50;99.90;;;14.22;100.00;102112.28;4878700;28;20558;-83
2021/07/10 02:21:18;;;;;;;8.05;1.75;;;15.50;99.90;;;14.22;100.00;102107.00;4893935;28;20097;-83
2021/07/10 02:23:43;;;;;;;3.70;1.48;;;15.50;99.90;;;14.22;100.00;102130.84;4915900;28;20493;-83
2021/07/10 02:26:15;;;;;;;2.75;1.60;;;15.50;99.90;;;14.21;100.00;102110.53;4921973;28;20080;-82
2021/07/10 02:28:41;;;;;;;4.53;1.58;;;15.40;99.90;;;14.20;100.00;102111.47;4902022;28;20091;-82
2021/07/10 02:31:07;;;;;;;1.50;1.33;;;15.40;99.90;;;14.20;100.00;102079.69;4940036;28;20090;-83
2021/07/10 02:33:32;;;;;;;3.70;1.60;;;15.50;99.90;;;14.21;100.00;102062.84;4957861;28;20509;-83
2021/07/10 02:35:59;;;;;;;2.13;1.40;;;15.50;99.90;;;14.19;100.00;102048.81;4950853;28;20107;-82
2021/07/10 02:38:25;;;;;;;2.65;1.90;;;15.50;99.90;;;14.20;100.00;102046.13;4925383;28;20156;-83
2021/07/10 02:41:00;;;;;;;1.33;1.20;;;15.50;99.90;;;14.22;100.00;102040.75;4955966;28;20084;-82
2021/07/10 02:43:26;;;;;;;1.67;1.48;;;15.40;99.90;;;14.20;100.00;102034.66;4913916;28;20073;-83
2021/07/10 02:45:52;;;;;;;1.65;1.55;;;15.40;99.90;;;14.20;100.00;102039.97;4905590;28;20145;-83
2021/07/10 02:48:23;;;;;;;2.05;1.65;;;15.40;99.90;;;14.21;100.00;102050.50;4929511;28;20075;-83
2021/07/10 02:50:52;;;;;;;5.88;1.77;;;15.40;99.90;;;14.23;100.00;102039.81;4935270;28;20125;-84
2021/07/10 02:53:17;;;;;;;2.70;1.65;;;15.50;99.90;;;14.23;100.00;102026.56;4946685;28;20156;-84
2021/07/10 02:55:44;;;;;;;3.53;1.70;;;15.40;99.90;;;14.22;100.00;102007.19;4894021;28;20094;-84
2021/07/10 02:58:17;;;;;;;2.97;1.80;;;15.50;99.90;;;14.22;100.00;101998.38;4994911;28;20062;-83
2021/07/10 03:00:43;;;;;;;2.10;1.50;;;15.50;99.90;;;14.23;100.00;101993.00;4997141;28;20444;-84
2021/07/10 03:03:09;;;;;;;2.28;1.50;;;15.40;99.90;;;14.21;100.00;101981.63;4988040;28;20064;-84
2021/07/10 03:05:35;;;;;;;3.05;1.73;;;15.50;99.90;;;14.20;100.00;101989.63;4900968;28;20084;-85
2021/07/10 03:08:09;;;;;;;1.70;1.50;;;;;;;14.19;100.00;101972.00;4937639;28;20060;-85
2021/07/10 03:10:35;;;;;;;1.95;1.45;;;15.40;99.90;;;14.20;100.00;101992.28;4920756;28;20056;-86
2021/07/10 03:13:02;;;;;;;1.42;1.25;;;15.40;99.90;;;14.18;100.00;101970.28;4855919;28;20148;-86
2021/07/10 03:15:28;;;;;;;1.70;1.42;;;15.40;99.90;;;14.16;100.00;101971.19;4927909;28;20652;-86
2021/07/10 03:18:03;;;;;;;3.17;1.67;;;15.40;99.90;;;14.16;100.00;101970.34;4946320;28;20073;-85
2021/07/10 03:20:30;;;;;;;1.67;1.30;;;15.40;99.90;;;14.14;100.00;101973.03;4908314;28;20077;-85
2021/07/10 03:23:07;;;;;;;2.20;1.27;;;;;;;14.14;100.00;101973.03;4932069;28;20060;-85
2021/07/10 03:25:33;;;;;;;2.50;1.70;;;15.40;99.90;;;14.19;100.00;101983.47;4942984;28;20064;-85
2021/07/10 03:28:00;;;;;;;2.85;1.58;;;15.40;99.90;;;14.18;100.00;102004.72;4918089;28;20077;-85
2021/07/10 03:30:31;;;;;;;2.42;1.30;;;15.40;99.90;;;14.14;100.00;101973.03;4895428;28;20071;-83
2021/07/10 03:32:57;;;;;;;1.67;1.35;;;15.40;99.90;;;14.16;100.00;101970.34;4907813;28;20092;-85
2021/07/10 03:35:23;;;;;;;1.77;1.38;;;15.40;99.90;;;14.12;100.00;101943.16;4913978;28;20052;-86
2021/07/10 03:37:51;;;;;;;3.08;1.58;;;15.30;99.90;;;14.13;100.00;101970.47;4883234;28;20153;-86
2021/07/10 03:40:27;;;;;;;1.90;1.55;;;15.40;99.90;;;14.14;100.00;102152.31;4905742;28;20082;-85
2021/07/10 03:42:54;;;;;;;1.73;1.42;;;15.40;99.90;;;14.15;100.00;102172.59;4938730;28;20061;-85
2021/07/10 03:45:21;;;;;;;2.75;1.50;;;15.40;99.90;;;14.09;100.00;102090.72;4878624;28;20460;-85
2021/07/10 03:47:56;;;;;;;10.05;1.80;;;15.30;99.90;;;14.09;100.00;102102.16;4896107;28;20071;-85
2021/07/10 03:50:22;;;;;;;2.55;1.80;;;15.40;99.90;;;14.11;100.00;102047.34;4912598;28;20070;-86
2021/07/10 03:52:49;;;;;;;2.08;1.63;;;15.30;99.90;;;14.08;100.00;102043.94;4902673;28;20147;-85
2021/07/10 03:55:24;;;;;;;3.28;1.90;;;15.30;99.90;;;14.05;100.00;102029.06;4904041;28;20612;-85
2021/07/10 03:57:49;;;;;;;3.67;1.75;;;15.30;99.90;;;14.03;100.00;102022.09;4902775;28;20091;-86
2021/07/10 04:00:27;;;;;;;2.58;1.70;;;15.30;99.90;;;14.06;100.00;102016.66;4802647;28;20085;-85
2021/07/10 04:02:54;;;;;;;3.08;1.63;;;;;;;14.02;100.00;102015.09;4863217;28;20514;-85
2021/07/10 04:05:20;;;;;;;4.25;2.20;;;15.30;99.90;;;14.06;100.00;102000.78;4903501;28;20077;-85
2021/07/10 04:07:55;;;;;;;3.90;1.95;;;15.30;99.90;;;14.03;100.00;101999.13;4925038;28;20055;-85
2021/07/10 04:10:21;;;;;;;2.53;1.90;;;15.30;99.90;;;14.05;100.00;101999.91;4896928;28;20160;-86
2021/07/10 04:12:48;;;;;;;3.00;2.10;;;15.30;99.90;;;14.00;100.00;101998.41;4941328;28;20148;-85
2021/07/10 04:15:25;;;;;;;2.95;1.95;;;15.30;99.90;;;14.01;100.00;101994.81;4912840;28;20065;-85
2021/07/10 04:17:51;;;;;;;4.30;2.28;;;15.30;99.90;;;14.01;100.00;101989.53;4935242;28;20075;-86
2021/07/10 04:20:27;;;;;;;2.72;2.30;;;15.30;99.90;;;14.04;100.00;102002.63;4920517;28;20075;-85
2021/07/10 04:22:54;;;;;;;5.28;2.35;;;;;;;14.05;100.00;101999.91;4937494;28;20488;-85
2021/07/10 04:25:20;;;;;;;4.85;2.42;;;15.30;99.90;;;14.09;100.00;102057.13;4931551;28;20055;-84
2021/07/10 04:27:52;;;;;;;3.63;2.30;;;15.40;99.90;;;14.11;100.00;102057.94;4933976;28;20055;-85
2021/07/10 04:30:20;;;;;;;4.47;2.30;;;15.40;99.90;;;14.14;100.00;102120.53;4929183;28;20155;-85
2021/07/10 04:32:46;;;;;;;3.13;1.83;;;;;;;14.12;100.00;102246.84;4913365;28;20047;-84
2021/07/10 04:35:16;;;;;;;3.20;1.85;;;;;;;14.19;100.00;102276.63;4919695;28;20065;-84
2021/07/10 04:37:46;;;;;;;2.38;1.92;;;15.40;99.90;;;14.16;100.00;102315.56;4880870;28;21907;-84
2021/07/10 04:40:13;;;;;;;3.78;1.80;;;15.50;99.90;;;14.16;100.00;102328.81;4849842;28;20156;-85
2021/07/10 04:42:41;;;;;;;3.22;1.90;;;15.50;99.90;;;14.21;100.00;102407.25;4929405;28;20072;-84
2021/07/10 04:45:16;;;;;;;4.70;2.10;;;15.50;99.90;;;14.23;100.00;102469.84;4943601;28;20066;-85
2021/07/10 04:47:43;;;;;;;3.33;2.20;;;15.50;99.90;;;14.19;100.00;102452.38;4978281;28;20083;-85
2021/07/10 04:50:17;;;;;;;3.42;1.95;;;15.40;99.90;;;14.15;100.00;102441.00;4912479;28;20586;-84
2021/07/10 04:52:43;;;;;;;2.40;1.85;;;15.50;99.90;;;14.16;100.00;102493.03;4902785;28;20070;-84
2021/07/10 04:55:21;;;;;;;3.55;1.98;;;15.40;99.90;;;14.14;100.00;102431.31;4890394;28;20529;-84
2021/07/10 04:57:48;;;;;;;3.33;2.10;;;15.40;99.90;;;14.15;100.00;102446.28;4911819;28;20237;-85
2021/07/10 05:00:16;;;;;;;2.10;1.77;;;15.40;99.90;;;14.13;100.00;102751.91;4909913;28;20072;-84
2021/07/10 05:02:47;;;;;;;2.83;2.00;;;15.40;99.90;;;14.11;100.00;102651.28;4923380;28;20153;-85
2021/07/10 05:05:14;;;;;;;4.90;2.08;;;;;;;14.12;100.00;102556.78;4938049;28;20909;-84
2021/07/10 05:07:40;;;;;;;3.90;1.98;;;15.40;99.90;;;14.10;100.00;102533.00;4936911;28;20539;-85
2021/07/10 05:10:07;;;;;;;3.53;1.77;;;15.40;99.90;;;14.09;100.00;102548.94;4925440;28;20065;-84
2021/07/10 05:12:33;;;;;;;3.75;1.90;;;15.30;99.90;;;14.04;100.00;102587.94;4862415;28;20340;-84
2021/07/10 05:15:03;;;;;;;2.75;2.22;;;15.30;99.90;;;14.09;100.00;103235.06;4891356;28;20120;-84
2021/07/10 05:17:29;;;;;;;3.30;2.22;;;;;;;14.07;100.00;103160.91;4896031;28;20086;-84
2021/07/10 05:19:55;;;;;;;5.47;2.05;;;15.30;99.90;;;14.08;100.00;102802.38;4883437;28;20070;-84
2021/07/10 05:22:21;;;;;;;2.85;1.77;;;15.40;99.90;;;14.11;100.00;103948.66;4924138;28;20100;-85
2021/07/10 05:24:47;;;;;;;3.58;2.03;;;15.40;99.90;;;14.19;100.00;104200.31;4959431;28;20124;-84
2021/07/10 05:27:13;;;;;;;3.95;2.00;;;15.50;99.90;;;14.28;100.00;103890.16;4887330;28;20064;-83
2021/07/10 05:29:46;;;;;;;3.88;2.15;;;15.50;99.90;;;14.30;100.00;103747.91;4884980;28;20080;-84
2021/07/10 05:32:13;;;;;;;5.25;2.13;;;15.60;99.90;;;14.39;100.00;103588.69;4937540;28;20068;-83
2021/07/10 05:34:40;;;;;;;5.40;2.28;;;15.60;99.90;;;14.39;100.00;103513.59;4967483;28;20057;-83
2021/07/10 05:37:11;;;;;;;1.90;1.80;;;15.60;99.90;;;14.38;100.00;104186.06;4935915;28;20068;-82
2021/07/10 05:39:38;;;;;;;1.92;1.77;;;15.60;99.90;;;14.39;100.00;103900.63;4947350;28;20077;-84
2021/07/10 05:42:06;;;;;;;1.65;1.55;;;15.70;99.90;;;14.37;100.00;103786.66;4928360;28;20552;-83
2021/07/10 05:44:33;;;;;;;2.33;1.88;;;15.70;99.90;;;14.40;100.00;103786.59;4931955;28;20033;-83
2021/07/10 05:47:07;;;;;;;2.05;1.85;;;15.70;99.90;;;14.43;100.00;103950.94;4916236;28;20093;-83
2021/07/10 05:49:33;;;;;;;2.83;2.00;;;;;;;14.53;100.00;103880.09;4936226;28;20105;-84
2021/07/10 05:52:00;;;;;;;2.20;1.48;;;;;;;14.60;100.00;103817.28;4948023;28;20070;-84
2021/07/10 05:54:33;;;;;;;1.73;1.63;;;15.90;99.90;;;14.70;100.00;103805.66;4942005;28;20071;-84
2021/07/10 05:56:59;;;;;;;3.00;1.95;;;16.00;99.90;;;14.76;100.00;103713.59;4940001;28;20067;-84
2021/07/10 05:59:25;;;;;;;2.95;1.77;;;16.00;99.90;;;14.69;100.00;103696.06;4896818;28;20076;-84
2021/07/10 06:01:51;;;;;;;2.28;1.70;;;16.00;99.90;;;14.75;100.00;103417.47;4933924;28;20093;-87
2021/07/10 06:04:27;;;;;;;;;;;;;;;;;;;;;
2021/07/10 06:06:54;;;;;;;3.05;1.58;;;16.00;99.90;;;14.72;100.00;103347.69;4985471;28;20429;-86
2021/07/10 06:09:20;;;;;;;2.80;1.70;;;16.00;99.90;;;14.71;100.00;103351.25;4909696;28;20115;-86
2021/07/10 06:11:57;;;;;;;2.42;1.55;;;16.00;99.90;;;14.73;100.00;103384.78;4868477;28;20089;-86
2021/07/10 06:14:23;;;;;;;4.13;1.65;;;;;;;14.74;100.00;103205.31;4835660;28;20517;-84
2021/07/10 06:16:59;;;;;;;2.15;1.67;;;15.90;99.90;;;14.67;100.00;103350.44;4874121;28;20148;-84
2021/07/10 06:19:25;;;;;;;2.72;1.92;;;16.00;99.90;;;14.75;100.00;103263.63;4914221;28;20127;-85
2021/07/10 06:21:51;;;;;;;2.83;1.65;;;16.00;99.90;;;14.81;100.00;103307.69;4911447;28;20058;-86
2021/07/10 06:24:25;;;;;;;2.20;1.90;;;16.10;99.90;;;14.90;100.00;103370.25;4899824;28;20057;-87
2021/07/10 06:26:51;;;;;;;2.88;1.75;;;;;;;14.98;100.00;103294.03;4882743;28;20467;-87
2021/07/10 06:29:17;;;;;;;4.15;1.70;;;16.20;99.90;;;15.00;100.00;103333.78;4951029;28;20156;-86
2021/07/10 06:31:43;;;;;;;3.83;1.60;;;16.10;99.90;;;15.01;100.00;103309.00;4923513;28;20090;-86
2021/07/10 06:34:18;;;;;;;1.70;1.50;;;16.10;99.90;;;15.04;100.00;103359.34;4918316;28;20063;-86
2021/07/10 06:36:44;;;;;;;2.90;1.50;;;16.20;99.90;;;15.03;100.00;103474.34;4865291;28;20560;-85
2021/07/10 06:39:10;;;;;;;2.70;1.52;;;16.10;99.90;;;14.95;100.00;103488.66;4940098;28;20093;-85
2021/07/10 06:41:37;;;;;;;1.88;1.58;;;16.20;99.90;;;15.02;100.00;103558.38;4921995;28;20087;-86
2021/07/10 06:44:12;;;;;;;2.60;1.70;;;16.20;99.90;;;15.05;100.00;103525.59;4964716;28;20417;-86
2021/07/10 06:46:38;;;;;;;4.45;1.70;;;16.10;99.90;;;15.02;100.00;103584.03;4925517;28;20062;-85
2021/07/10 06:49:04;;;;;;;2.47;1.75;;;16.10;99.90;;;15.03;100.00;103621.16;4950918;28;20083;-85
2021/07/10 06:51:37;;;;;;;4.60;1.77;;;16.20;99.90;;;15.12;100.00;103589.13;4953728;28;20077;-86
2021/07/10 06:54:03;;;;;;;2.92;1.92;;;16.30;99.90;;;15.18;100.00;103463.38;4939523;28;20200;-85
2021/07/10 06:56:29;;;;;;;5.32;2.00;;;16.40;99.90;;;15.22;100.00;103562.41;4933277;28;20447;-85
2021/07/10 06:58:55;;;;;;;3.25;1.88;;;16.30;99.90;;;15.15;100.00;103490.00;4901314;28;20072;-86
2021/07/10 07:01:21;;;;;;;2.60;1.88;;;16.20;99.90;;;15.09;100.00;103445.00;4925917;28;20419;-86
2021/07/10 07:03:52;;;;;;;4.00;1.90;;;16.30;99.90;;;15.03;100.00;103549.53;4941584;28;20478;-85
2021/07/10 07:06:18;;;;;;;2.63;1.80;;;;;;;15.05;100.00;103752.00;4893164;28;20100;-86
2021/07/10 07:08:44;;;;;;;2.15;1.65;;;16.30;99.90;;;15.14;100.00;103696.16;4930720;28;20491;-86
2021/07/10 07:11:11;;;;;;;2.75;1.98;;;16.30;99.90;;;15.26;100.00;103740.16;4927623;28;20054;-85
2021/07/10 07:13:43;;;;;;;3.88;1.98;;;16.40;99.90;;;15.35;100.00;103578.03;4921141;28;20146;-85
2021/07/10 07:16:09;;;;;;;3.83;2.20;;;16.60;99.90;;;15.37;100.00;103567.38;4895928;28;20527;-85
2021/07/10 07:18:35;;;;;;;3.80;2.15;;;16.70;99.90;;;15.60;100.00;103635.94;4913784;28;20217;-85
2021/07/10 07:21:01;;;;;;;4.20;2.20;;;16.70;99.90;;;15.67;100.00;103674.72;4900543;28;20154;-84
2021/07/10 07:23:27;;;;;;;3.08;2.10;;;16.70;99.90;;;15.71;100.00;103648.97;4929060;28;20830;-85
2021/07/10 07:25:53;;;;;;;2.10;1.85;;;16.70;99.90;;;15.59;100.00;103621.78;4884113;28;20121;-84
2021/07/10 07:28:24;;;;;;;2.55;2.00;;;16.60;99.90;;;15.47;100.00;103606.09;4880130;28;20234;-84
2021/07/10 07:30:50;;;;;;;3.90;2.20;;;16.60;99.90;;;15.50;100.00;103672.41;4866551;28;20389;-83
2021/07/10 07:33:16;;;;;;;2.50;1.90;;;16.60;99.90;;;15.57;100.00;103644.84;4868120;28;20143;-82
2021/07/10 07:35:43;;;;;;;5.70;2.00;;;;;;;15.56;100.00;103528.88;4932463;28;20078;-81
2021/07/10 07:38:09;;;;;;;3.28;2.17;;;16.80;99.90;;;15.83;100.00;103533.59;4886913;28;20083;-79
2021/07/10 07:40:41;;;;;;;5.75;2.00;;;17.00;99.90;;;16.04;100.00;103586.25;4853298;28;20452;-79
2021/07/10 07:43:07;;;;;;;7.00;2.15;;;17.20;99.90;;;16.24;100.00;103700.09;4936488;28;20135;-79
2021/07/10 07:45:33;;;;;;;3.65;2.05;;;17.50;99.90;;;16.73;100.00;103671.41;4929311;28;20120;-79
2021/07/10 07:47:59;;;;;;;4.90;1.80;;;18.00;99.90;;;17.23;100.00;103355.00;4899038;28;20041;-80
2021/07/10 07:50:25;;;;;;;4.38;1.80;;;18.30;99.90;;;17.09;100.00;103383.88;4943539;28;20509;-79
2021/07/10 07:52:58;;;;;;;5.60;1.50;;;18.10;99.90;;;16.89;100.00;103352.53;4944006;28;20033;-79
2021/07/10 07:55:25;;;;;;;6.15;1.75;;;17.80;99.90;;;16.68;100.00;103336.31;4955914;28;20546;-83
2021/07/10 07:57:51;;;;;;;2.25;1.60;;;17.70;99.90;;;16.56;100.00;103344.66;4898810;28;20379;-80
2021/07/10 08:00:24;;;;;;;2.08;1.55;;;17.50;99.90;;;16.33;100.00;103292.19;4911724;28;20440;-80
2021/07/10 08:02:50;;;;;;;1.90;1.33;;;17.20;99.90;;;15.97;100.00;103253.34;4938559;28;20430;-81
2021/07/10 08:05:18;;;;;;;5.57;2.13;;;17.10;99.90;;;16.02;100.00;103276.25;4911652;28;20054;-81
2021/07/10 08:07:44;;;;;;;4.07;2.30;;;17.20;99.90;;;16.09;100.00;103272.50;4937699;28;20500;-81
2021/07/10 08:10:14;;;;;;;3.53;2.05;;;17.30;99.90;;;16.13;100.00;103267.06;4947099;28;20063;-81
2021/07/10 08:12:43;;;;;;;3.78;2.35;;;17.30;99.90;;;16.35;100.00;103279.72;4886874;28;20133;-81
2021/07/10 08:15:12;;;;;;;3.72;2.08;;;17.50;99.90;;;16.39;100.00;103260.97;4930634;28;20059;-81
2021/07/10 08:17:38;;;;;;;5.28;2.55;;;17.50;99.90;;;16.49;100.00;103213.66;4963206;28;20048;-81
2021/07/10 08:20:08;;;;;;;4.85;2.58;;;17.50;99.90;;;16.50;100.00;103214.53;4897032;28;20061;-81
2021/07/10 08:22:34;;;;;;;3.20;2.15;;;17.60;99.90;;;16.55;100.00;103200.16;4908368;28;20055;-81
2021/07/10 08:25:00;;;;;;;8.77;2.78;;;17.50;99.90;;;16.47;100.00;103212.84;4912687;28;20069;-81
2021/07/10 08:27:26;;;;;;;8.00;2.15;;;17.50;99.90;;;16.47;100.00;103191.56;4923298;28;20064;-81
2021/07/10 08:29:52;;;;;;;3.88;2.38;;;17.60;99.90;;;16.48;100.00;103180.03;4915166;28;20588;-81
2021/07/10 08:32:23;;;;;;;4.38;2.40;;;17.60;99.90;;;16.29;100.00;103214.31;4916487;28;20545;-81
2021/07/10 08:34:50;;;;;;;6.00;2.50;;;;;;;16.26;100.00;103155.88;4911646;28;20032;-81
2021/07/10 08:37:17;;;;;;;4.80;2.40;;;17.30;99.90;;;16.05;100.00;103152.16;4883842;28;24328;-81
2021/07/10 08:39:43;;;;;;;3.22;2.40;;;17.20;99.90;;;16.03;100.00;103151.31;4913158;28;20071;-80
2021/07/10 08:42:09;;;;;;;4.88;3.10;;;17.10;99.90;;;16.03;100.00;103143.34;4941147;28;20083;-80
2021/07/10 08:44:41;;;;;;;7.05;2.92;;;17.20;99.90;;;16.09;100.00;103136.97;4914911;28;20091;-80
2021/07/10 08:47:14;;;;;;;6.90;3.03;;;17.20;99.90;;;16.15;100.00;103134.97;4917059;28;20075;-80
2021/07/10 08:49:43;;;;;;;7.53;3.08;;;17.30;99.90;;;16.20;100.00;103111.78;4929446;28;20106;-80
2021/07/10 08:52:10;;;;;;;5.70;3.38;;;;;;;16.28;100.00;103102.69;4941636;28;20138;-81
2021/07/10 08:54:37;;;;;;;5.93;3.10;;;17.30;99.90;;;16.26;100.00;103080.59;4918570;28;20617;-80
2021/07/10 08:57:12;;;;;;;5.38;3.55;;;17.20;99.90;;;16.15;100.00;103095.09;4899281;28;20095;-81
2021/07/10 08:59:39;;;;;;;9.10;4.00;;;17.20;99.90;;;16.09;100.00;103076.72;4959095;28;20754;-80
2021/07/10 09:02:28;;;;;;;6.43;3.45;;;17.10;99.90;;;15.98;100.00;103071.75;4963096;28;20427;-81
2021/07/10 09:05:18;;;;;;;11.25;4.28;;;17.00;99.90;;;15.85;100.00;103073.03;4918653;28;20025;-80
2021/07/10 09:08:27;;;;;;;7.97;4.03;;;16.90;99.90;;;15.78;100.00;103061.75;4934028;28;20083;-80
2021/07/10 09:11:08;;;;;;;7.18;4.45;;;17.00;99.90;;;15.84;100.00;103071.31;4934512;28;20147;-80
2021/07/10 09:13:58;;;;;;;12.02;4.78;;;17.00;99.90;;;15.90;100.00;103149.97;4934792;28;20026;-80
2021/07/10 09:16:48;;;;;;;7.97;4.78;;;17.00;99.90;;;15.90;100.00;103115.44;4932797;28;20147;-79
2021/07/10 09:19:59;;;;;;;13.30;4.47;;;17.00;99.90;;;15.89;100.00;103073.81;4965342;28;20051;-80
2021/07/10 09:22:42;;;;;;;6.05;4.15;;;17.00;99.90;;;15.96;100.00;103109.91;4931613;28;20061;-78
2021/07/10 09:25:46;;;;;;;11.93;4.97;;;17.10;99.90;;;16.10;100.00;103118.31;4931322;28;20059;-79
2021/07/10 09:28:30;;;;;;;11.75;5.28;;;17.30;99.90;;;16.25;100.00;103124.06;4900241;28;20066;-80
2021/07/10 09:31:04;;;;;;;7.82;5.75;;;17.40;99.90;;;16.49;100.00;103114.41;4901063;28;20070;-79
2021/07/10 09:34:09;;;;;;;7.80;5.43;;;17.60;99.90;;;16.58;100.00;103109.63;4930253;28;20073;-79
2021/07/10 09:36:57;;;;;;;10.80;5.18;;;17.80;99.90;;;16.75;100.00;103102.88;4917053;28;20504;-79
2021/07/10 09:40:09;;;;;;;8.90;4.97;;;17.90;99.90;;;16.81;100.00;103108.00;4894640;28;20788;-79
2021/07/10 09:42:48;;;;;;;8.85;4.30;;;18.00;99.90;;;16.85;100.00;103079.50;4916414;28;20122;-77
2021/07/10 09:45:25;;;;;;;5.65;4.25;;;18.00;99.90;;;16.84;100.00;103091.94;4890388;28;20564;-77
2021/07/10 09:48:10;;;;;;;8.18;3.97;;;18.00;99.90;;;16.77;100.00;103095.69;4922866;28;20132;-77
2021/07/10 09:51:42;;;;;;;10.38;4.22;;;17.90;99.90;;;16.59;100.00;110179.16;4886902;28;20028;-77
2021/07/10 09:54:17;;;;;;;7.13;4.05;;;17.90;99.90;;;16.66;100.00;108735.66;4897152;28;20027;-78
2021/07/10 09:57:40;;;;;;;13.88;4.50;;;17.90;99.90;;;16.76;100.00;107869.56;4911501;28;20249;-77
2021/07/10 10:00:39;;;;;;;7.38;4.20;;;18.00;99.90;;;16.75;100.00;107297.81;4896994;28;20092;-78
2021/07/10 10:03:36;;;;;;;6.50;3.60;;;17.90;99.90;;;16.62;100.00;106726.75;4923595;28;20712;-78
2021/07/10 10:06:40;;;;;;;5.07;3.40;;;17.70;99.90;;;16.52;100.00;106315.75;4859205;28;20050;-79
2021/07/10 10:09:27;;;;;;;4.75;3.22;;;17.60;99.90;;;16.42;100.00;106009.56;4931099;28;20036;-78
2021/07/10 10:12:15;;;;;;;9.80;3.78;;;17.60;99.90;;;16.33;100.00;105880.88;4908538;28;20092;-78
2021/07/10 10:15:04;;;;;;;9.10;3.67;;;17.40;99.90;;;16.27;100.00;105523.47;4875787;28;20160;-78
2021/07/10 10:17:49;;;;;;;11.43;3.80;;;17.40;99.90;;;16.22;100.00;104964.00;4931211;28;20526;-77
2021/07/10 10:20:51;;;;;;;5.43;3.53;;;17.40;99.90;;;16.27;100.00;104790.25;4960383;28;20085;-77
2021/07/10 10:23:46;;;;;;;5.68;3.72;;;17.50;99.90;;;16.36;100.00;104548.13;4845906;28;20073;-78
2021/07/10 10:26:17;;;;;;;8.77;3.90;;;17.50;99.90;;;16.34;100.00;104349.59;4873236;28;20068;-78
2021/07/10 10:28:45;;;;;;;6.03;3.67;;;17.50;99.90;;;16.35;100.00;104290.19;4900211;28;20065;-79
2021/07/10 10:31:17;;;;;;;5.22;3.60;;;17.50;99.90;;;16.38;100.00;104251.13;4949938;28;20198;-79